Time;durP1;ratioP1;P1;durP2;ratioP2;P2;SDS_P1;SDS_P2;PMS_P1;PMS_P2;Temp;Humidity;BMP_temperature;BMP_pressure;BME280_temperature;BME280_humidity;BME280_pressure;Samples;Min_cycle;Max_cycle;Signal;HPM_P1;HPM_P2
2022/12/10 00:01:15;;;;;;;54.97;17.05;;;6.60;95.70;;;;;;5109546;28;20028;-56
2022/12/10 00:03:41;;;;;;;49.50;16.10;;;6.60;95.70;;;;;;5109537;28;20028;-55
2022/12/10 00:06:08;;;;;;;54.88;16.30;;;6.60;95.70;;;;;;5092454;28;20045;-55
2022/12/10 00:08:33;;;;;;;65.25;16.73;;;6.60;95.60;;;;;;5127513;28;20062;-56
2022/12/10 00:10:59;;;;;;;61.35;16.40;;;6.60;95.60;;;;;;5127634;28;20024;-55
2022/12/10 00:13:25;;;;;;;44.00;15.55;;;6.60;95.60;;;;;;5109331;28;20023;-55
2022/12/10 00:15:50;;;;;;;59.28;16.35;;;6.60;95.60;;;;;;5109217;28;20036;-56
2022/12/10 00:18:16;;;;;;;49.72;15.68;;;6.60;95.60;;;;;;5109328;28;20019;-56
2022/12/10 00:20:41;;;;;;;59.97;17.25;;;6.60;95.60;;;;;;5075339;28;20099;-55
2022/12/10 00:23:07;;;;;;;38.70;15.88;;;6.60;95.50;;;;;;5109382;28;20079;-55
2022/12/10 00:25:32;;;;;;;59.15;17.75;;;6.60;95.50;;;;;;5127469;28;20038;-55
2022/12/10 00:27:58;;;;;;;48.90;18.33;;;6.50;95.40;;;;;;5109055;28;20497;-56
2022/12/10 00:30:24;;;;;;;62.05;18.15;;;6.60;95.40;;;;;;5127536;28;20023;-56
2022/12/10 00:32:49;;;;;;;49.15;17.05;;;6.50;95.40;;;;;;5109291;28;20020;-55
2022/12/10 00:35:15;;;;;;;39.55;16.52;;;6.50;95.40;;;;;;5127446;28;20107;-55
2022/12/10 00:37:40;;;;;;;47.10;18.38;;;6.50;95.50;;;;;;5127204;28;20046;-56
2022/12/10 00:40:06;;;;;;;50.83;18.13;;;6.50;95.40;;;;;;5126734;28;20027;-55
2022/12/10 00:42:32;;;;;;;51.47;16.75;;;6.50;95.50;;;;;;5108982;28;20404;-55
2022/12/10 00:44:57;;;;;;;42.00;17.63;;;6.50;95.40;;;;;;5127082;28;20028;-55
2022/12/10 00:47:23;;;;;;;55.38;16.48;;;6.50;95.40;;;;;;5127347;28;20373;-55
2022/12/10 00:49:48;;;;;;;41.47;17.90;;;6.50;95.40;;;;;;5127213;28;20380;-56
2022/12/10 00:52:14;;;;;;;42.08;17.35;;;6.50;95.40;;;;;;5108517;28;20049;-55
2022/12/10 00:54:40;;;;;;;65.38;17.83;;;6.50;95.40;;;;;;5108679;28;20041;-55
2022/12/10 00:57:06;;;;;;;45.67;17.58;;;6.50;95.40;;;;;;5108724;28;20186;-55
2022/12/10 00:59:31;;;;;;;40.30;18.35;;;6.50;95.40;;;;;;5108803;28;20028;-55
2022/12/10 01:01:57;;;;;;;46.75;17.10;;;6.50;95.40;;;;;;5127124;28;20028;-55
2022/12/10 01:04:23;;;;;;;48.25;17.55;;;6.50;95.40;;;;;;5108475;28;20123;-56
2022/12/10 01:06:50;;;;;;;43.15;17.88;;;6.50;95.40;;;;;;5091565;28;20444;-56
2022/12/10 01:09:18;;;;;;;47.72;17.70;;;6.50;95.40;;;;;;5091659;28;20024;-56
2022/12/10 01:11:44;;;;;;;42.78;18.13;;;6.50;95.30;;;;;;5108436;28;20035;-55
2022/12/10 01:14:11;;;;;;;44.00;18.15;;;6.50;95.40;;;;;;5108375;28;20072;-55
2022/12/10 01:16:37;;;;;;;44.53;18.05;;;6.50;95.40;;;;;;5108409;28;20032;-56
2022/12/10 01:19:03;;;;;;;46.72;17.38;;;6.50;95.40;;;;;;5108049;28;20023;-56
2022/12/10 01:21:28;;;;;;;41.30;18.00;;;6.50;95.30;;;;;;5091320;28;20161;-55
2022/12/10 01:23:54;;;;;;;50.78;19.85;;;6.50;95.30;;;;;;5107962;28;20023;-55
2022/12/10 01:26:24;;;;;;;40.42;17.98;;;6.50;95.30;;;;;;5126282;28;20035;-55
2022/12/10 01:28:50;;;;;;;33.63;18.10;;;6.50;95.30;;;;;;5091583;28;20076;-55
2022/12/10 01:31:20;;;;;;;40.50;19.00;;;6.50;95.20;;;;;;5090838;28;20028;-56
2022/12/10 01:33:46;;;;;;;39.90;18.65;;;6.50;95.20;;;;;;5091869;28;20027;-55
2022/12/10 01:36:22;;;;;;;36.85;18.10;;;6.50;95.20;;;;;;5108122;28;20085;-55
2022/12/10 01:38:48;;;;;;;40.33;18.27;;;6.50;95.30;;;;;;5091377;28;20106;-56
2022/12/10 01:41:19;;;;;;;33.95;18.52;;;6.50;95.30;;;;;;5107810;28;20047;-56
2022/12/10 01:44:08;;;;;;;50.00;19.73;;;6.50;95.30;;;;;;5091395;28;20024;-55
2022/12/10 01:46:35;;;;;;;36.00;16.70;;;6.50;95.30;;;;;;5126084;28;20045;-56
2022/12/10 01:49:03;;;;;;;32.60;16.95;;;6.50;95.30;;;;;;5074088;28;20079;-55
2022/12/10 01:51:29;;;;;;;35.88;18.00;;;6.50;95.30;;;;;;5106709;28;20032;-56
2022/12/10 01:53:55;;;;;;;39.42;17.60;;;6.50;95.30;;;;;;5090805;28;20050;-56
2022/12/10 01:56:21;;;;;;;31.05;16.63;;;6.50;95.60;;;;;;5090440;28;20036;-56
2022/12/10 01:58:48;;;;;;;38.25;17.55;;;6.50;95.30;;;;;;5090468;28;20045;-56
2022/12/10 02:01:35;;;;;;;39.22;16.42;;;6.50;95.30;;;;;;5125752;28;20540;-56
2022/12/10 02:04:12;;;;;;;37.58;17.23;;;6.50;95.30;;;;;;5079779;28;20081;-54
2022/12/10 02:07:10;;;;;;;33.03;17.02;;;6.50;95.30;;;;;;5091664;28;20062;-55
2022/12/10 02:09:38;;;;;;;33.33;17.33;;;6.50;95.30;;;;;;5107195;28;20453;-55
2022/12/10 02:12:37;;;;;;;31.17;16.50;;;6.50;95.30;;;;;;5107345;28;20039;-55
2022/12/10 02:15:12;;;;;;;40.90;17.25;;;6.50;95.30;;;;;;5125917;28;20039;-56
2022/12/10 02:17:45;;;;;;;32.55;15.55;;;6.50;95.20;;;;;;5074304;28;20082;-55
2022/12/10 02:20:33;;;;;;;34.13;16.88;;;6.50;95.20;;;;;;5091198;28;20031;-55
2022/12/10 02:23:02;;;;;;;35.42;16.17;;;6.50;95.20;;;;;;5125858;28;20134;-56
2022/12/10 02:25:48;;;;;;;27.00;15.82;;;6.50;95.20;;;;;;5125488;28;20054;-55
2022/12/10 02:28:42;;;;;;;30.05;15.75;;;6.50;95.20;;;;;;5106943;28;20023;-56
2022/12/10 02:31:09;;;;;;;31.08;16.55;;;6.50;95.20;;;;;;5125320;28;20031;-56
2022/12/10 02:33:36;;;;;;;36.40;17.27;;;6.50;95.20;;;;;;5090244;28;20039;-56
2022/12/10 02:36:01;;;;;;;31.75;15.88;;;6.50;95.20;;;;;;5090283;28;20361;-56
2022/12/10 02:38:31;;;;;;;33.78;16.73;;;6.50;95.20;;;;;;5090041;28;20031;-55
2022/12/10 02:40:59;;;;;;;28.92;15.23;;;6.50;95.20;;;;;;5073667;28;20034;-55
2022/12/10 02:43:25;;;;;;;33.25;17.05;;;6.50;95.20;;;;;;5090302;28;20119;-55
2022/12/10 02:45:50;;;;;;;22.40;14.90;;;6.50;95.20;;;;;;5089765;28;20049;-56
2022/12/10 02:48:16;;;;;;;33.15;16.00;;;6.50;95.20;;;;;;5089812;28;20433;-55
2022/12/10 02:50:41;;;;;;;25.55;15.25;;;6.50;95.20;;;;;;5090399;28;20059;-55
2022/12/10 02:53:08;;;;;;;32.05;15.57;;;6.50;95.20;;;;;;5106991;28;20044;-55
2022/12/10 02:55:56;;;;;;;30.33;15.25;;;6.50;95.20;;;;;;5125135;28;20028;-55
2022/12/10 02:58:30;;;;;;;28.65;15.98;;;6.50;95.20;;;;;;5109128;28;20092;-55
2022/12/10 03:01:22;;;;;;;33.38;15.70;;;6.50;95.20;;;;;;5106486;28;20040;-55
2022/12/10 03:03:54;;;;;;;26.02;16.35;;;6.40;95.20;;;;;;5073358;28;20051;-55
2022/12/10 03:06:27;;;;;;;23.45;15.63;;;6.40;95.20;;;;;;5093847;28;20042;-55
2022/12/10 03:09:36;;;;;;;26.73;15.10;;;6.40;95.20;;;;;;5094471;28;20050;-55
2022/12/10 03:12:17;;;;;;;27.33;16.42;;;6.50;95.20;;;;;;5029442;28;20418;-55
2022/12/10 03:14:42;;;;;;;23.77;13.98;;;6.50;95.10;;;;;;5031363;28;20041;-55
2022/12/10 03:17:08;;;;;;;23.88;15.60;;;6.50;95.10;;;;;;5069021;28;20043;-55
2022/12/10 03:19:36;;;;;;;29.25;16.33;;;6.50;95.10;;;;;;5093700;28;20114;-55
2022/12/10 03:22:02;;;;;;;25.20;15.82;;;6.50;95.10;;;;;;5093633;28;20028;-55
2022/12/10 03:24:28;;;;;;;25.60;15.82;;;6.50;95.10;;;;;;5093462;28;20038;-55
2022/12/10 03:26:54;;;;;;;27.52;15.35;;;6.40;95.00;;;;;;5093411;28;20528;-55
2022/12/10 03:29:22;;;;;;;27.98;17.00;;;6.50;95.10;;;;;;5110343;28;20035;-55
2022/12/10 03:31:48;;;;;;;35.95;18.35;;;6.40;95.10;;;;;;5093055;28;20024;-55
2022/12/10 03:34:14;;;;;;;36.17;18.52;;;6.40;95.00;;;;;;5110216;28;20035;-55
2022/12/10 03:36:39;;;;;;;28.65;17.85;;;6.50;95.10;;;;;;5093179;28;20112;-55
2022/12/10 03:39:05;;;;;;;27.02;17.23;;;6.50;95.10;;;;;;5093114;28;20454;-55
2022/12/10 03:41:31;;;;;;;26.77;16.50;;;6.50;95.10;;;;;;5093063;28;20365;-55
2022/12/10 03:43:57;;;;;;;31.25;15.95;;;6.50;95.10;;;;;;5093236;28;20171;-55
2022/12/10 03:46:24;;;;;;;26.60;16.13;;;6.50;95.00;;;;;;5093012;28;20047;-55
2022/12/10 03:48:50;;;;;;;24.70;16.02;;;6.50;95.00;;;;;;5093114;28;20466;-55
2022/12/10 03:51:16;;;;;;;29.17;16.00;;;6.40;95.00;;;;;;5109591;28;20030;-55
2022/12/10 03:53:41;;;;;;;24.77;15.70;;;6.40;95.00;;;;;;5128211;28;20106;-55
2022/12/10 03:56:07;;;;;;;24.23;15.30;;;6.40;95.10;;;;;;5109803;28;20028;-55
2022/12/10 03:58:32;;;;;;;24.58;16.00;;;6.40;95.20;;;;;;5110078;28;20085;-56
2022/12/10 04:00:58;;;;;;;23.17;16.20;;;6.40;95.40;;;;;;5092749;28;20035;-55
2022/12/10 04:03:24;;;;;;;22.58;15.63;;;6.40;95.70;;;;;;5109757;28;20083;-55
2022/12/10 04:05:49;;;;;;;21.02;14.77;;;6.40;95.90;;;;;;5109500;28;20050;-56
2022/12/10 04:08:15;;;;;;;27.77;17.08;;;6.50;96.00;;;;;;5109709;28;20053;-55
2022/12/10 04:10:40;;;;;;;23.60;17.45;;;6.40;96.10;;;;;;5109417;28;20028;-55
2022/12/10 04:18:34;;;;;;;26.38;15.88;;;6.50;96.00;;;;;;5128121;28;20058;-55
2022/12/10 04:29:12;;;;;;;25.83;16.40;;;6.50;95.70;;;;;;5111865;28;20038;-56
2022/12/10 04:31:38;;;;;;;25.08;16.50;;;6.40;95.70;;;;;;5109219;28;20019;-55
2022/12/10 04:34:03;;;;;;;23.13;14.98;;;6.50;95.70;;;;;;5092344;28;20020;-56
2022/12/10 04:36:29;;;;;;;22.67;15.10;;;6.50;95.60;;;;;;5127710;28;20031;-55
2022/12/10 04:38:54;;;;;;;22.23;15.52;;;6.40;95.50;;;;;;5127544;28;20031;-55
2022/12/10 04:41:20;;;;;;;21.63;15.63;;;6.50;95.50;;;;;;5092084;28;20023;-55
2022/12/10 04:43:45;;;;;;;25.90;15.50;;;6.50;95.50;;;;;;5109019;28;20023;-55
2022/12/10 04:46:11;;;;;;;28.70;16.08;;;6.50;95.50;;;;;;5108893;28;20032;-55
2022/12/10 04:48:37;;;;;;;21.15;15.18;;;6.50;95.50;;;;;;5091829;28;20042;-55
2022/12/10 04:51:02;;;;;;;21.63;15.75;;;6.50;95.50;;;;;;5108885;28;20028;-55
2022/12/10 04:53:28;;;;;;;22.88;14.98;;;6.40;95.50;;;;;;5127267;28;20035;-55
2022/12/10 04:55:53;;;;;;;21.35;14.90;;;6.40;95.50;;;;;;5091958;28;20027;-55
2022/12/10 04:58:19;;;;;;;21.48;14.38;;;6.40;95.50;;;;;;5092211;28;20076;-55
2022/12/10 05:00:44;;;;;;;23.98;15.98;;;6.40;95.50;;;;;;5108618;28;20032;-55
2022/12/10 05:03:10;;;;;;;21.15;14.77;;;6.40;95.50;;;;;;5074990;28;20167;-55
2022/12/10 05:05:36;;;;;;;23.95;15.18;;;6.40;95.40;;;;;;5091529;28;20132;-55
2022/12/10 05:08:01;;;;;;;21.67;14.75;;;6.40;95.50;;;;;;5108786;28;20023;-55
2022/12/10 05:10:27;;;;;;;22.60;14.70;;;6.40;95.40;;;;;;5108668;28;20500;-55
2022/12/10 05:12:52;;;;;;;20.70;14.80;;;6.40;95.40;;;;;;5091665;28;20053;-55
2022/12/10 05:15:18;;;;;;;21.05;14.10;;;6.40;95.40;;;;;;5108443;28;20020;-55
2022/12/10 05:17:43;;;;;;;19.67;15.05;;;6.40;95.40;;;;;;5108354;28;20042;-55
2022/12/10 05:20:09;;;;;;;17.27;13.77;;;6.40;95.40;;;;;;5108168;28;20108;-55
2022/12/10 05:25:19;;;;;;;20.55;14.27;;;6.40;95.30;;;;;;5110723;28;20038;-55
2022/12/10 05:27:44;;;;;;;21.13;14.70;;;6.40;95.30;;;;;;5090271;28;20083;-55
2022/12/10 05:30:12;;;;;;;24.60;14.60;;;6.40;95.30;;;;;;5126446;28;20046;-55
2022/12/10 05:32:38;;;;;;;20.95;13.32;;;6.40;95.30;;;;;;5108398;28;20027;-55
2022/12/10 05:35:04;;;;;;;21.75;14.05;;;6.40;95.30;;;;;;5108253;28;20030;-55
2022/12/10 05:37:30;;;;;;;23.27;13.73;;;6.40;95.30;;;;;;5091082;28;20034;-56
2022/12/10 05:39:55;;;;;;;17.63;14.18;;;6.40;95.30;;;;;;5108035;28;20047;-53
2022/12/10 05:42:21;;;;;;;20.85;13.25;;;6.40;95.30;;;;;;5108176;28;20349;-55
2022/12/10 05:44:46;;;;;;;22.48;14.95;;;6.40;95.30;;;;;;5126176;28;20051;-56
2022/12/10 05:47:12;;;;;;;22.08;14.35;;;6.40;95.40;;;;;;5107902;28;20059;-55
2022/12/10 05:49:37;;;;;;;21.88;15.05;;;6.40;95.40;;;;;;5107990;28;20050;-55
2022/12/10 05:52:03;;;;;;;22.38;15.90;;;6.40;95.40;;;;;;5125749;28;20038;-55
2022/12/10 05:54:28;;;;;;;19.83;16.17;;;6.40;95.40;;;;;;5126188;28;20045;-55
2022/12/10 05:56:54;;;;;;;30.88;18.10;;;6.40;95.40;;;;;;5107760;28;20452;-55
2022/12/10 05:59:20;;;;;;;24.65;17.02;;;6.40;95.30;;;;;;5107532;28;20497;-55
2022/12/10 06:01:45;;;;;;;23.92;16.60;;;6.40;95.30;;;;;;5125977;28;20046;-55
2022/12/10 06:04:11;;;;;;;21.20;15.88;;;6.40;95.30;;;;;;5107481;28;20023;-55
2022/12/10 06:06:37;;;;;;;20.60;15.93;;;6.40;95.30;;;;;;5090773;28;20461;-55
2022/12/10 06:09:03;;;;;;;22.77;15.40;;;6.40;95.30;;;;;;5090738;28;20034;-55
2022/12/10 06:11:29;;;;;;;22.17;16.35;;;6.40;95.20;;;;;;5090437;28;20047;-55
2022/12/10 06:13:55;;;;;;;20.20;15.90;;;6.40;95.20;;;;;;5126380;28;20358;-55
2022/12/10 06:16:21;;;;;;;23.48;15.88;;;6.40;95.20;;;;;;5107835;28;20070;-55
2022/12/10 06:18:47;;;;;;;20.05;14.35;;;6.30;95.20;;;;;;5107427;28;20031;-55
2022/12/10 06:21:13;;;;;;;19.50;15.25;;;6.30;95.30;;;;;;5090510;28;20043;-55
2022/12/10 06:23:39;;;;;;;20.10;15.38;;;6.30;95.30;;;;;;5090280;28;20485;-55
2022/12/10 06:26:16;;;;;;;19.73;15.30;;;6.20;95.20;;;;;;5107285;28;20034;-55
2022/12/10 06:28:43;;;;;;;20.92;15.27;;;6.30;95.30;;;;;;5108716;28;20103;-55
2022/12/10 06:31:09;;;;;;;21.40;15.30;;;6.30;95.30;;;;;;5125514;28;20032;-55
2022/12/10 06:33:34;;;;;;;17.98;15.15;;;6.20;95.30;;;;;;5125821;28;20053;-55
2022/12/10 06:36:02;;;;;;;25.05;15.75;;;6.30;95.40;;;;;;5090132;28;20434;-55
2022/12/10 06:38:28;;;;;;;21.17;14.90;;;6.20;95.30;;;;;;5106994;28;20046;-55
2022/12/10 06:40:53;;;;;;;19.80;15.05;;;6.20;95.30;;;;;;5107106;28;20024;-55
2022/12/10 06:43:19;;;;;;;18.60;13.93;;;6.20;95.30;;;;;;5107232;28;20051;-55
2022/12/10 06:45:44;;;;;;;20.27;14.77;;;6.20;95.30;;;;;;5125361;28;20038;-55
2022/12/10 06:48:10;;;;;;;20.60;14.88;;;6.20;95.20;;;;;;5107015;28;20020;-55
2022/12/10 06:50:36;;;;;;;20.40;15.70;;;6.20;95.20;;;;;;5125187;28;20020;-55
2022/12/10 06:53:02;;;;;;;17.85;13.50;;;6.20;95.30;;;;;;5106902;28;20028;-55
2022/12/10 06:55:28;;;;;;;20.92;14.45;;;6.20;95.20;;;;;;5125744;28;20052;-55
2022/12/10 06:57:53;;;;;;;21.70;14.57;;;6.20;95.30;;;;;;5090259;28;20038;-55
2022/12/10 07:00:20;;;;;;;19.33;15.25;;;6.20;95.30;;;;;;5090251;28;20020;-55
2022/12/10 07:02:45;;;;;;;18.08;14.13;;;6.20;95.30;;;;;;5089983;28;20083;-54
2022/12/10 07:05:11;;;;;;;17.17;13.93;;;6.20;95.30;;;;;;5089983;28;20068;-55
2022/12/10 07:07:36;;;;;;;19.13;14.40;;;6.10;95.30;;;;;;5106781;28;20027;-55
2022/12/10 07:10:02;;;;;;;16.85;13.88;;;6.10;95.30;;;;;;5125264;28;20051;-55
2022/12/10 07:12:28;;;;;;;19.35;14.85;;;6.10;95.30;;;;;;5125356;28;20030;-55
2022/12/10 07:14:53;;;;;;;20.90;14.40;;;6.10;95.30;;;;;;5106889;28;20028;-55
2022/12/10 07:17:19;;;;;;;19.15;15.05;;;6.10;95.30;;;;;;5106908;28;20034;-55
2022/12/10 07:19:44;;;;;;;21.02;15.10;;;6.10;95.40;;;;;;5090031;28;20102;-55
2022/12/10 07:22:10;;;;;;;19.67;14.10;;;6.10;95.40;;;;;;5106785;28;20027;-55
2022/12/10 07:24:36;;;;;;;17.48;14.05;;;6.10;95.30;;;;;;5106797;28;20041;-55
2022/12/10 07:27:04;;;;;;;16.58;13.70;;;6.10;95.30;;;;;;5106553;28;20032;-55
2022/12/10 07:29:30;;;;;;;17.42;13.38;;;6.10;95.30;;;;;;5107083;28;20330;-55
2022/12/10 07:31:56;;;;;;;20.33;13.55;;;6.10;95.30;;;;;;5125210;28;20019;-55
2022/12/10 07:34:21;;;;;;;21.73;14.32;;;6.10;95.40;;;;;;5106626;28;20040;-55
2022/12/10 07:36:47;;;;;;;18.05;14.25;;;6.10;95.40;;;;;;5106474;28;20035;-55
2022/12/10 07:39:16;;;;;;;19.05;13.98;;;6.00;95.40;;;;;;5106825;28;20070;-55
2022/12/10 07:41:52;;;;;;;17.80;14.20;;;6.00;95.40;;;;;;5107031;28;20088;-55
2022/12/10 07:44:21;;;;;;;15.65;12.45;;;6.00;95.40;;;;;;5108088;28;20031;-55
2022/12/10 07:46:47;;;;;;;17.73;13.27;;;6.00;95.30;;;;;;5090144;28;20034;-55
2022/12/10 07:49:13;;;;;;;19.33;13.60;;;6.00;95.30;;;;;;5089742;28;20038;-55
2022/12/10 07:51:38;;;;;;;16.98;13.48;;;6.00;95.60;;;;;;5128362;28;20024;-56
2022/12/10 07:54:04;;;;;;;18.02;13.95;;;6.00;95.40;;;;;;5128422;28;20125;-55
2022/12/10 07:56:30;;;;;;;18.90;13.82;;;6.00;95.40;;;;;;5109979;28;20039;-55
2022/12/10 07:58:55;;;;;;;18.77;13.57;;;6.00;95.40;;;;;;5109937;28;20024;-56
2022/12/10 08:01:23;;;;;;;14.85;12.98;;;6.00;95.40;;;;;;5093210;28;20069;-55
2022/12/10 08:03:48;;;;;;;18.02;14.27;;;5.90;95.30;;;;;;5093404;28;20315;-55
2022/12/10 08:06:15;;;;;;;15.80;13.27;;;6.00;95.40;;;;;;5109656;28;20058;-55
2022/12/10 08:08:41;;;;;;;16.77;12.88;;;5.90;95.40;;;;;;5128290;28;20046;-55
2022/12/10 08:11:07;;;;;;;18.73;12.95;;;6.00;95.40;;;;;;5109587;28;20023;-56
2022/12/10 08:13:33;;;;;;;17.08;13.45;;;5.90;95.40;;;;;;5109780;28;20055;-56
2022/12/10 08:16:26;;;;;;;18.58;14.32;;;6.00;95.40;;;;;;5092910;28;20456;-56
2022/12/10 08:18:52;;;;;;;17.80;13.77;;;5.90;95.40;;;;;;5127475;28;20441;-56
2022/12/10 08:21:19;;;;;;;16.73;12.93;;;5.90;95.50;;;;;;5092625;28;20103;-56
2022/12/10 08:23:45;;;;;;;17.48;14.13;;;5.90;95.40;;;;;;5109755;28;20043;-56
2022/12/10 08:26:13;;;;;;;16.73;12.85;;;5.90;95.50;;;;;;5092355;28;20027;-56
2022/12/10 08:28:38;;;;;;;18.52;13.00;;;5.90;95.50;;;;;;5109665;28;20114;-55
2022/12/10 08:31:04;;;;;;;15.40;13.20;;;5.90;95.50;;;;;;5109237;28;20039;-56
2022/12/10 08:33:32;;;;;;;15.98;12.43;;;5.80;95.50;;;;;;5127761;28;20032;-56
2022/12/10 08:35:59;;;;;;;14.57;12.65;;;5.90;95.50;;;;;;5109378;28;20028;-56
2022/12/10 08:38:25;;;;;;;16.80;13.55;;;5.80;95.50;;;;;;5127665;28;20044;-56
2022/12/10 08:40:50;;;;;;;15.60;13.15;;;5.80;95.50;;;;;;5127899;28;20037;-56
2022/12/10 08:43:16;;;;;;;17.77;12.85;;;5.80;95.50;;;;;;5109120;28;20039;-56
2022/12/10 08:45:42;;;;;;;18.08;12.70;;;5.80;95.60;;;;;;5108877;28;20055;-56
2022/12/10 08:48:07;;;;;;;17.00;12.80;;;5.80;95.60;;;;;;5109142;28;20028;-56
2022/12/10 08:50:33;;;;;;;16.25;12.98;;;5.80;95.60;;;;;;5108753;28;20047;-56
2022/12/10 08:52:59;;;;;;;15.45;12.10;;;5.70;95.60;;;;;;5108867;28;20073;-55
2022/12/10 08:55:25;;;;;;;14.80;12.00;;;5.70;95.60;;;;;;5092159;28;20036;-56
2022/12/10 08:57:50;;;;;;;14.68;11.82;;;5.70;95.90;;;;;;5127282;28;20124;-56
2022/12/10 09:00:16;;;;;;;14.00;12.43;;;5.70;95.60;;;;;;5109058;28;20389;-56
2022/12/10 09:02:41;;;;;;;15.73;13.10;;;5.70;95.60;;;;;;5108328;28;20027;-56
2022/12/10 09:05:07;;;;;;;14.20;11.52;;;5.70;95.70;;;;;;5121030;28;20027;-55
2022/12/10 09:07:33;;;;;;;14.23;12.02;;;5.70;95.70;;;;;;5123648;28;20030;-56
2022/12/10 09:09:58;;;;;;;15.55;12.40;;;5.60;95.70;;;;;;5100595;28;20032;-56
2022/12/10 09:12:24;;;;;;;13.80;11.32;;;5.60;95.70;;;;;;5119504;28;20065;-56
2022/12/10 09:14:49;;;;;;;13.50;11.43;;;5.60;95.80;;;;;;5124978;28;20051;-56
2022/12/10 09:17:15;;;;;;;15.13;12.18;;;5.60;95.80;;;;;;5104589;28;20047;-55
2022/12/10 09:19:41;;;;;;;15.35;11.25;;;5.60;95.80;;;;;;5090661;28;20043;-56
2022/12/10 09:22:06;;;;;;;14.40;11.27;;;5.60;95.80;;;;;;5124434;28;20058;-56
2022/12/10 09:24:32;;;;;;;14.82;11.75;;;5.60;95.90;;;;;;5108019;28;20031;-56
2022/12/10 09:26:57;;;;;;;16.98;10.80;;;5.60;95.90;;;;;;5107654;28;20028;-56
2022/12/10 09:29:23;;;;;;;19.98;11.13;;;5.60;96.00;;;;;;5107792;28;20083;-56
2022/12/10 09:31:52;;;;;;;30.80;11.38;;;5.60;96.00;;;;;;5088556;28;20405;-56
2022/12/10 09:34:17;;;;;;;20.80;11.60;;;5.50;96.00;;;;;;5107290;28;20031;-56
2022/12/10 09:36:43;;;;;;;26.63;12.02;;;5.50;96.00;;;;;;5125946;28;20031;-56
2022/12/10 09:39:08;;;;;;;30.58;12.40;;;5.50;96.10;;;;;;5106965;28;20034;-56
2022/12/10 09:41:56;;;;;;;26.80;11.63;;;5.50;96.20;;;;;;5089762;28;20032;-56
2022/12/10 09:44:33;;;;;;;33.28;12.30;;;5.60;96.10;;;;;;5103895;28;20032;-56
2022/12/10 09:47:00;;;;;;;38.97;13.13;;;5.60;96.20;;;;;;5113090;28;20138;-56
2022/12/10 09:49:32;;;;;;;48.25;13.93;;;5.60;96.20;;;;;;5125695;28;20047;-56
2022/12/10 09:51:59;;;;;;;51.80;13.93;;;5.50;96.20;;;;;;5106107;28;20476;-55
2022/12/10 09:54:45;;;;;;;63.40;14.65;;;5.60;96.30;;;;;;5106460;28;20027;-55
2022/12/10 09:57:19;;;;;;;52.22;13.75;;;5.60;96.40;;;;;;5106354;28;20027;-56
2022/12/10 09:59:47;;;;;;;40.72;11.93;;;5.60;96.40;;;;;;5107433;28;20093;-56
2022/12/10 10:02:29;;;;;;;46.33;13.13;;;5.60;96.40;;;;;;5106761;28;20040;-56
2022/12/10 10:05:06;;;;;;;58.00;15.45;;;5.60;96.50;;;;;;5106800;28;20361;-56
2022/12/10 10:07:37;;;;;;;63.03;14.95;;;5.60;96.60;;;;;;5090526;28;20027;-56
2022/12/10 10:10:05;;;;;;;92.03;16.30;;;5.60;96.70;;;;;;5101733;28;20173;-55
2022/12/10 10:12:32;;;;;;;106.97;18.50;;;5.60;96.80;;;;;;5102575;28;20032;-56
2022/12/10 10:14:58;;;;;;;87.22;18.98;;;5.70;97.00;;;;;;5103161;28;20028;-55
2022/12/10 10:17:29;;;;;;;126.90;19.85;;;5.70;97.20;;;;;;5104879;28;20467;-55
2022/12/10 10:19:54;;;;;;;157.10;22.90;;;5.70;97.30;;;;;;5094212;28;20032;-56
2022/12/10 10:22:20;;;;;;;325.75;34.28;;;5.80;97.30;;;;;;5124648;28;20020;-55
2022/12/10 10:24:46;;;;;;;145.18;23.50;;;5.80;97.20;;;;;;5105361;28;20031;-60
2022/12/10 10:27:26;;;;;;;167.35;24.95;;;5.90;97.20;;;;;;5106067;28;20027;-60
2022/12/10 10:29:52;;;;;;;160.40;24.20;;;5.90;97.20;;;;;;5106636;28;20038;-60
2022/12/10 10:32:20;;;;;;;157.20;24.65;;;6.00;97.10;;;;;;5106328;28;20032;-60
2022/12/10 10:34:46;;;;;;;204.00;30.17;;;6.00;97.20;;;;;;5101841;28;20043;-60
2022/12/10 10:37:25;;;;;;;206.80;29.02;;;6.10;97.30;;;;;;5105485;28;20035;-60
2022/12/10 10:39:51;;;;;;;228.13;32.08;;;6.10;97.20;;;;;;5124455;28;20035;-60
2022/12/10 10:42:39;;;;;;;226.32;30.83;;;6.10;97.20;;;;;;5089567;28;20373;-60
2022/12/10 10:45:26;;;;;;;323.48;39.63;;;6.10;97.30;;;;;;5106464;28;20039;-60
2022/12/10 10:48:03;;;;;;;244.32;32.58;;;6.10;97.30;;;;;;5113340;28;20035;-60
2022/12/10 10:50:29;;;;;;;180.68;30.85;;;6.10;97.50;;;;;;5106403;28;20023;-61
2022/12/10 10:52:54;;;;;;;239.50;33.30;;;6.00;97.50;;;;;;5105812;28;20468;-60
2022/12/10 10:55:40;;;;;;;264.75;36.10;;;6.00;97.50;;;;;;5124495;28;20430;-61
2022/12/10 10:58:13;;;;;;;;;;;6.00;97.60;;;;;;5105903;28;20059;-60
2022/12/10 11:00:39;;;;;;;212.65;32.72;;;6.00;97.60;;;;;;5089115;28;19915;-60
2022/12/10 11:03:06;;;;;;;229.10;32.97;;;6.00;97.70;;;;;;5106023;28;20039;-61
2022/12/10 11:05:33;;;;;;;239.18;30.70;;;6.00;97.80;;;;;;5106044;28;20024;-60
2022/12/10 11:08:04;;;;;;;200.40;31.15;;;6.00;97.80;;;;;;5106294;28;20092;-61
2022/12/10 11:10:30;;;;;;;227.07;33.30;;;6.10;98.00;;;;;;5105882;28;20122;-60
2022/12/10 11:13:04;;;;;;;230.43;31.30;;;6.00;97.90;;;;;;5105932;28;20493;-61
2022/12/10 11:15:39;;;;;;;221.88;34.33;;;6.10;98.00;;;;;;5124311;28;20119;-61
2022/12/10 11:18:35;;;;;;;246.48;32.85;;;6.10;98.00;;;;;;5102777;28;20043;-60
2022/12/10 11:21:06;;;;;;;218.25;33.63;;;6.10;98.00;;;;;;5100851;28;20023;-61
2022/12/10 11:23:39;;;;;;;237.02;33.15;;;6.10;98.00;;;;;;5104181;28;20502;-62
2022/12/10 11:26:23;;;;;;;198.90;29.15;;;6.20;98.10;;;;;;5098310;28;20023;-62
2022/12/10 11:29:01;;;;;;;253.77;35.28;;;6.20;98.00;;;;;;5126694;28;20027;-63
2022/12/10 11:31:43;;;;;;;255.55;33.78;;;6.20;98.00;;;;;;5126110;28;20130;-63
2022/12/10 11:34:27;;;;;;;223.25;31.25;;;6.20;98.10;;;;;;5109730;28;20055;-63
2022/12/10 11:37:30;;;;;;;206.82;30.75;;;6.20;98.10;;;;;;5100073;28;20500;-63
2022/12/10 11:40:22;;;;;;;223.30;30.52;;;6.20;98.20;;;;;;5124444;28;20031;-63
2022/12/10 11:43:22;;;;;;;214.23;27.75;;;6.20;98.20;;;;;;5113576;28;20407;-62
2022/12/10 11:46:06;;;;;;;185.88;29.75;;;6.20;98.30;;;;;;5119853;28;20457;-63
2022/12/10 11:48:53;;;;;;;229.57;31.13;;;6.20;98.20;;;;;;5126789;28;20341;-63
2022/12/10 11:51:32;;;;;;;206.05;29.08;;;6.20;98.10;;;;;;5110290;28;20109;-62
2022/12/10 11:54:19;;;;;;;246.05;30.58;;;6.20;98.20;;;;;;5073895;28;20109;-62
2022/12/10 11:56:47;;;;;;;195.25;29.60;;;6.20;98.30;;;;;;5096689;28;20028;-62
2022/12/10 11:59:34;;;;;;;252.93;29.83;;;6.30;98.40;;;;;;5109047;28;20057;-62
2022/12/10 12:02:20;;;;;;;203.50;28.17;;;6.30;98.50;;;;;;5107514;28;20096;-63
2022/12/10 12:04:51;;;;;;;209.65;29.95;;;6.30;98.50;;;;;;5109522;28;20440;-63
2022/12/10 12:07:29;;;;;;;166.73;25.38;;;6.30;98.40;;;;;;5124073;28;20032;-63
2022/12/10 12:10:18;;;;;;;210.77;27.98;;;6.30;98.40;;;;;;5114980;28;20535;-63
2022/12/10 12:12:50;;;;;;;194.18;29.65;;;6.30;98.40;;;;;;5103874;28;20036;-62
2022/12/10 12:15:22;;;;;;;207.50;28.67;;;6.30;98.40;;;;;;5106465;28;20137;-61
2022/12/10 12:17:51;;;;;;;195.25;26.15;;;6.30;98.40;;;;;;5106846;28;20031;-62
2022/12/10 12:20:32;;;;;;;206.68;29.15;;;6.30;98.30;;;;;;5073909;28;20019;-62
2022/12/10 12:23:24;;;;;;;166.23;25.88;;;6.30;98.40;;;;;;5097161;28;20032;-63
2022/12/10 12:26:00;;;;;;;192.80;25.80;;;6.30;98.40;;;;;;5104568;28;20024;-63
2022/12/10 12:28:43;;;;;;;186.10;26.30;;;6.30;98.30;;;;;;5075136;28;20083;-63
2022/12/10 12:31:40;;;;;;;153.98;25.20;;;6.30;98.20;;;;;;5092055;28;20027;-63
2022/12/10 12:34:25;;;;;;;167.57;23.33;;;6.30;98.10;;;;;;5110941;28;20050;-63
2022/12/10 12:36:50;;;;;;;165.93;23.45;;;6.30;98.10;;;;;;5107233;28;20123;-63
2022/12/10 12:39:28;;;;;;;152.73;23.98;;;6.30;98.10;;;;;;5107165;28;20176;-62
2022/12/10 12:42:22;;;;;;;161.93;23.13;;;6.30;98.00;;;;;;5126256;28;20027;-61
2022/12/10 12:44:54;;;;;;;152.18;23.00;;;6.30;98.00;;;;;;5116876;28;20084;-63
2022/12/10 12:47:39;;;;;;;183.40;24.17;;;6.30;98.10;;;;;;5123601;28;20031;-63
2022/12/10 12:50:10;;;;;;;178.38;23.92;;;6.30;98.10;;;;;;5105714;28;20023;-63
2022/12/10 12:52:48;;;;;;;167.43;23.45;;;6.10;98.10;;;;;;5090541;28;20040;-63
2022/12/10 12:55:22;;;;;;;145.63;23.20;;;6.30;98.20;;;;;;5104171;28;20054;-62
2022/12/10 12:58:11;;;;;;;241.98;30.65;;;6.30;98.10;;;;;;5104369;28;20089;-62
2022/12/10 13:00:37;;;;;;;195.07;27.75;;;6.30;98.10;;;;;;5091778;28;20028;-63
2022/12/10 13:03:31;;;;;;;186.80;25.48;;;6.30;98.10;;;;;;5089718;28;20095;-63
2022/12/10 13:06:15;;;;;;;141.90;23.50;;;6.30;98.00;;;;;;5106865;28;20043;-62